Time;durP1;ratioP1;P1;durP2;ratioP2;P2;SDS_P1;SDS_P2;PMS_P1;PMS_P2;Temp;Humidity;BMP_temperature;BMP_pressure;BME280_temperature;BME280_humidity;BME280_pressure;Samples;Min_cycle;Max_cycle;Signal;HPM_P1;HPM_P2
2021/04/01 00:00:47;;;;;;;81.33;60.43;;;13.50;68.60;;;;;;5113274;28;20039;-70
2021/04/01 00:03:14;;;;;;;79.93;60.17;;;13.50;68.80;;;;;;5113644;28;20092;-70
2021/04/01 00:05:39;;;;;;;87.40;61.97;;;13.50;68.80;;;;;;5112433;28;20044;-70
2021/04/01 00:08:05;;;;;;;86.50;64.20;;;13.40;68.90;;;;;;5113177;28;20051;-70
2021/04/01 00:10:40;;;;;;;83.93;63.63;;;13.40;69.00;;;;;;5113462;28;20043;-70
2021/04/01 00:13:06;;;;;;;85.17;63.60;;;13.40;69.20;;;;;;5112398;28;20047;-70
2021/04/01 00:15:33;;;;;;;90.13;68.50;;;13.30;69.40;;;;;;5113174;28;20088;-70
2021/04/01 00:17:59;;;;;;;84.93;63.17;;;13.30;69.50;;;;;;5112214;28;20055;-70
2021/04/01 00:20:24;;;;;;;89.57;65.27;;;13.30;69.60;;;;;;5113204;28;20044;-70
2021/04/01 00:22:50;;;;;;;84.00;64.40;;;13.30;69.80;;;;;;5112813;28;20048;-70
2021/04/01 00:25:17;;;;;;;88.63;67.47;;;13.20;69.90;;;;;;5112666;28;20040;-70
2021/04/01 00:27:43;;;;;;;90.77;66.97;;;13.20;70.00;;;;;;5112962;28;20047;-71
2021/04/01 00:30:10;;;;;;;87.23;65.87;;;13.20;70.20;;;;;;5112845;28;20555;-71
2021/04/01 00:32:35;;;;;;;91.33;68.10;;;13.20;70.30;;;;;;5112034;28;20122;-71
2021/04/01 00:35:01;;;;;;;92.03;68.13;;;13.20;70.40;;;;;;5112787;28;20128;-71
2021/04/01 00:37:27;;;;;;;88.90;66.30;;;13.30;70.20;;;;;;5113087;28;20142;-70
2021/04/01 00:39:53;;;;;;;85.37;65.63;;;13.30;70.10;;;;;;5111657;28;20048;-71
2021/04/01 00:42:19;;;;;;;91.23;66.00;;;13.30;70.10;;;;;;5112953;28;20171;-71
2021/04/01 00:44:44;;;;;;;88.53;67.33;;;13.30;70.00;;;;;;5112468;28;20062;-71
2021/04/01 00:47:10;;;;;;;84.53;63.43;;;13.30;70.10;;;;;;5111662;28;20492;-70
2021/04/01 00:49:36;;;;;;;90.97;68.73;;;13.30;70.10;;;;;;5111761;28;20048;-70
2021/04/01 00:52:07;;;;;;;89.93;65.93;;;13.30;70.00;;;;;;5112446;28;20135;-71
2021/04/01 00:54:33;;;;;;;96.53;70.13;;;13.30;69.90;;;;;;5111863;28;20138;-71
2021/04/01 00:56:59;;;;;;;91.63;68.37;;;13.30;69.90;;;;;;5112428;28;20048;-71
2021/04/01 00:59:27;;;;;;;96.20;68.47;;;13.30;70.00;;;;;;5112700;28;20069;-71
2021/04/01 01:01:59;;;;;;;95.17;69.67;;;13.30;70.10;;;;;;5111200;28;20039;-71
2021/04/01 01:04:25;;;;;;;93.85;70.80;;;13.30;70.30;;;;;;5112736;28;20085;-71
2021/04/01 01:06:50;;;;;;;101.03;73.13;;;13.30;70.30;;;;;;5112030;28;20047;-70
2021/04/01 01:09:16;;;;;;;97.83;68.83;;;13.20;70.50;;;;;;5111875;28;20051;-70
2021/04/01 01:11:42;;;;;;;98.07;68.20;;;13.20;70.60;;;;;;5112249;28;20441;-70
2021/04/01 01:14:08;;;;;;;98.37;70.63;;;13.20;70.50;;;;;;5112177;28;20047;-70
2021/04/01 01:16:37;;;;;;;97.37;69.83;;;13.20;70.40;;;;;;5111453;28;20047;-70
2021/04/01 01:19:04;;;;;;;95.83;67.73;;;13.20;70.50;;;;;;5112047;28;20048;-71
2021/04/01 01:21:30;;;;;;;97.63;68.03;;;13.20;70.80;;;;;;5111713;28;20152;-70
2021/04/01 01:23:56;;;;;;;98.30;70.53;;;13.20;70.40;;;;;;5111764;28;20425;-70
2021/04/01 01:26:23;;;;;;;95.70;67.63;;;13.20;70.50;;;;;;5112396;28;20127;-71
2021/04/01 01:28:49;;;;;;;94.57;69.30;;;13.20;70.20;;;;;;5110932;28;20047;-71
2021/04/01 01:31:16;;;;;;;97.60;70.57;;;13.20;70.20;;;;;;5112069;28;20039;-71
2021/04/01 01:33:43;;;;;;;99.33;71.10;;;13.10;70.00;;;;;;5111778;28;20522;-71
2021/04/01 01:36:13;;;;;;;100.90;69.27;;;13.10;69.70;;;;;;5111202;28;20069;-71
2021/04/01 01:38:39;;;;;;;98.43;67.40;;;13.10;69.50;;;;;;5111578;28;20521;-71
2021/04/01 01:41:05;;;;;;;95.80;67.10;;;13.10;69.40;;;;;;5111732;28;20048;-71
2021/04/01 01:43:33;;;;;;;99.63;69.73;;;13.10;69.30;;;;;;5111424;28;20131;-71
2021/04/01 01:45:59;;;;;;;99.50;70.17;;;13.10;69.10;;;;;;5111614;28;20044;-71
2021/04/01 01:48:24;;;;;;;101.70;69.67;;;13.10;69.10;;;;;;5112300;28;20043;-70
2021/04/01 01:50:50;;;;;;;99.43;68.10;;;13.10;69.00;;;;;;5110720;28;20070;-70
2021/04/01 01:53:16;;;;;;;100.03;68.67;;;13.00;68.90;;;;;;5112113;28;20047;-70
2021/04/01 01:55:43;;;;;;;101.23;71.63;;;12.90;68.80;;;;;;5111620;28;20056;-70
2021/04/01 01:58:10;;;;;;;99.20;69.63;;;13.00;68.70;;;;;;5110756;28;20051;-70
2021/04/01 02:00:50;;;;;;;104.07;69.87;;;12.90;68.70;;;;;;5114535;28;20100;-70
2021/04/01 02:03:16;;;;;;;101.70;68.40;;;12.90;68.80;;;;;;5116042;28;20462;-70
2021/04/01 02:05:43;;;;;;;99.47;70.03;;;12.80;68.90;;;;;;5115032;28;20376;-70
2021/04/01 02:08:11;;;;;;;99.63;70.90;;;12.80;68.90;;;;;;5115646;28;20044;-71
2021/04/01 02:10:43;;;;;;;109.90;72.00;;;12.80;68.90;;;;;;5114776;28;20048;-70
2021/04/01 02:13:11;;;;;;;109.67;73.43;;;12.80;68.80;;;;;;5115556;28;20044;-70
2021/04/01 02:15:40;;;;;;;105.10;71.47;;;12.80;68.60;;;;;;5115534;28;20438;-70
2021/04/01 02:18:14;;;;;;;102.87;70.93;;;12.80;68.70;;;;;;5114821;28;20062;-70
2021/04/01 02:20:43;;;;;;;104.43;69.90;;;12.70;68.70;;;;;;5115595;28;20043;-70
2021/04/01 02:23:14;;;;;;;102.73;70.93;;;12.70;68.90;;;;;;5115202;28;20385;-70
2021/04/01 02:25:41;;;;;;;106.93;72.50;;;12.70;69.00;;;;;;5114514;28;20052;-70
2021/04/01 02:28:08;;;;;;;101.77;65.70;;;12.60;69.00;;;;;;5115383;28;20385;-70
2021/04/01 02:30:34;;;;;;;110.50;72.37;;;12.60;69.10;;;;;;5115259;28;20465;-70
2021/04/01 02:33:00;;;;;;;107.60;73.57;;;12.50;69.20;;;;;;5114499;28;20436;-70
2021/04/01 02:35:26;;;;;;;101.60;69.37;;;12.50;69.40;;;;;;5115422;28;20074;-70
2021/04/01 02:37:52;;;;;;;107.27;71.90;;;12.40;69.50;;;;;;5114542;28;20058;-70
2021/04/01 02:40:18;;;;;;;111.60;73.10;;;12.40;69.50;;;;;;5114727;28;20047;-70
2021/04/01 02:42:44;;;;;;;105.27;71.13;;;12.30;69.50;;;;;;5115156;28;20148;-70
2021/04/01 02:45:11;;;;;;;102.13;71.27;;;12.30;69.70;;;;;;5112895;28;20080;-70
2021/04/01 02:47:37;;;;;;;109.40;75.87;;;12.30;69.80;;;;;;5073498;28;20494;-70
2021/04/01 02:50:05;;;;;;;105.07;72.40;;;12.20;69.80;;;;;;5074239;28;20060;-70
2021/04/01 02:52:30;;;;;;;105.47;72.83;;;12.10;69.90;;;;;;5074519;28;20399;-70
2021/04/01 02:54:56;;;;;;;102.73;69.20;;;12.10;70.00;;;;;;5073263;28;20136;-70
2021/04/01 02:57:22;;;;;;;98.77;67.60;;;12.10;70.10;;;;;;5074372;28;20127;-70
2021/04/01 02:59:48;;;;;;;109.90;74.20;;;12.00;70.10;;;;;;5073190;28;20491;-70
2021/04/01 03:02:17;;;;;;;105.70;72.80;;;12.00;70.10;;;;;;5074259;28;20045;-70
2021/04/01 03:04:44;;;;;;;110.50;72.20;;;12.00;70.10;;;;;;5074084;28;20106;-70
2021/04/01 03:07:10;;;;;;;110.10;74.90;;;11.90;70.10;;;;;;5073436;28;20089;-70
2021/04/01 03:09:36;;;;;;;102.37;70.33;;;11.90;70.20;;;;;;5073997;28;20136;-70
2021/04/01 03:12:03;;;;;;;109.87;75.17;;;11.90;70.30;;;;;;5072958;28;20493;-70
2021/04/01 03:14:28;;;;;;;109.43;73.03;;;11.90;71.30;;;;;;5073450;28;20076;-70
2021/04/01 03:16:54;;;;;;;115.33;76.10;;;11.80;70.60;;;;;;5073532;28;20072;-71
2021/04/01 03:19:19;;;;;;;113.27;74.50;;;11.70;70.70;;;;;;5073878;28;20051;-70
2021/04/01 03:21:45;;;;;;;115.33;76.93;;;11.70;70.80;;;;;;5072701;28;20053;-70
2021/04/01 03:24:12;;;;;;;113.47;74.20;;;11.60;70.80;;;;;;5073873;28;20049;-70
2021/04/01 03:26:38;;;;;;;113.83;75.13;;;11.60;70.80;;;;;;5073676;28;20401;-70
2021/04/01 03:29:03;;;;;;;119.20;77.73;;;11.60;71.10;;;;;;5072644;28;20305;-70
2021/04/01 03:31:29;;;;;;;112.87;75.87;;;11.50;71.20;;;;;;5073825;28;20049;-70
2021/04/01 03:33:55;;;;;;;117.67;76.83;;;11.40;71.40;;;;;;5073130;28;20048;-70
2021/04/01 03:36:20;;;;;;;114.27;80.37;;;11.40;71.60;;;;;;5072841;28;20045;-70
2021/04/01 03:38:47;;;;;;;119.07;80.07;;;11.40;71.80;;;;;;5073103;28;20056;-71
2021/04/01 03:41:13;;;;;;;118.50;79.33;;;11.30;71.90;;;;;;5073706;28;20094;-70
2021/04/01 03:43:39;;;;;;;114.60;75.10;;;11.30;72.10;;;;;;5072571;28;20758;-70
2021/04/01 03:46:06;;;;;;;120.17;77.90;;;11.20;72.20;;;;;;5088397;28;20055;-70
2021/04/01 03:48:32;;;;;;;115.27;76.83;;;11.10;72.50;;;;;;5113667;28;20297;-70
2021/04/01 03:50:57;;;;;;;111.20;75.53;;;11.00;72.70;;;;;;5112719;28;20298;-70
2021/04/01 03:53:23;;;;;;;121.63;80.93;;;11.00;73.10;;;;;;5114040;28;20082;-70
2021/04/01 03:55:50;;;;;;;120.50;81.67;;;10.90;73.30;;;;;;5113267;28;20135;-70
2021/04/01 04:01:26;;;;;;;121.33;74.33;;;10.80;73.90;;;;;;5113203;28;20395;-69
2021/04/01 04:04:04;;;;;;;114.50;70.80;;;10.60;74.20;;;;;;5112102;28;20290;-69
2021/04/01 04:12:03;;;;;;;99.20;63.97;;;10.40;74.50;;;;;;5112186;28;20415;-72
2021/04/01 04:14:33;;;;;;;95.93;63.65;;;10.30;74.70;;;;;;5107391;28;20301;-69
2021/04/01 04:16:59;;;;;;;99.43;63.90;;;10.20;74.70;;;;;;5101756;28;20040;-69
2021/04/01 04:19:25;;;;;;;102.53;63.77;;;10.20;74.80;;;;;;5102382;28;20381;-69
2021/04/01 04:21:50;;;;;;;99.37;65.27;;;10.20;74.90;;;;;;5102588;28;20036;-69
2021/04/01 04:24:16;;;;;;;98.37;64.80;;;10.10;75.00;;;;;;5099950;28;20054;-69
2021/04/01 04:26:42;;;;;;;103.33;65.97;;;10.10;75.20;;;;;;5103185;28;20074;-69
2021/04/01 04:29:08;;;;;;;98.90;62.93;;;10.00;75.40;;;;;;5102577;28;20048;-68
2021/04/01 04:31:33;;;;;;;96.33;63.50;;;10.00;75.60;;;;;;5100550;28;20309;-68
2021/04/01 04:33:59;;;;;;;97.37;64.10;;;9.90;75.60;;;;;;5101096;28;20369;-68
2021/04/01 04:36:24;;;;;;;97.63;63.37;;;9.90;75.90;;;;;;5102479;28;20040;-68
2021/04/01 04:38:50;;;;;;;95.37;63.20;;;9.80;76.00;;;;;;5101239;28;20040;-69
2021/04/01 04:41:16;;;;;;;99.77;65.40;;;9.80;76.40;;;;;;5101004;28;20078;-69
2021/04/01 04:43:41;;;;;;;105.53;67.47;;;9.70;76.50;;;;;;5102679;28;20074;-69
2021/04/01 04:46:07;;;;;;;106.00;68.53;;;9.60;76.60;;;;;;5101189;28;20055;-69
2021/04/01 04:48:32;;;;;;;109.73;69.87;;;9.50;77.10;;;;;;5100924;28;20074;-69
2021/04/01 04:50:58;;;;;;;118.83;76.47;;;9.40;77.70;;;;;;5102619;28;20036;-68
2021/04/01 04:53:25;;;;;;;117.53;75.30;;;9.40;78.30;;;;;;5100945;28;20066;-69
2021/04/01 04:58:42;;;;;;;124.67;77.63;;;9.20;78.60;;;;;;5102756;28;20305;-69
2021/04/01 05:04:37;;;;;;;120.20;78.87;;;9.10;78.70;;;;;;5095804;28;20298;-68
2021/04/01 05:06:54;;;;;;;139.50;86.57;;;9.10;79.40;;;;;;5101944;28;20289;-69
2021/04/01 05:09:21;;;;;;;137.32;89.03;;;9.00;80.20;;;;;;5100857;28;20316;-69
2021/04/01 05:11:46;;;;;;;130.90;86.00;;;8.80;81.40;;;;;;5101072;28;20109;-69
2021/04/01 05:14:12;;;;;;;121.40;77.27;;;8.70;82.10;;;;;;5102033;28;20298;-69
2021/04/01 05:16:38;;;;;;;115.33;76.07;;;8.60;82.50;;;;;;5100248;28;20058;-69
2021/04/01 05:19:05;;;;;;;107.10;62.17;;;8.50;82.90;;;;;;5102189;28;20047;-69
2021/04/01 05:21:54;;;;;;;86.27;53.20;;;8.50;83.80;;;;;;5101660;28;20090;-69
2021/04/01 05:24:19;;;;;;;72.50;46.93;;;8.40;85.50;;;;;;5102006;28;20325;-70
2021/04/01 05:29:35;;;;;;;40.90;22.87;;;8.30;86.00;;;;;;5100529;28;20283;-70
2021/04/01 05:32:03;;;;;;;27.90;14.67;;;8.20;85.70;;;;;;5100519;28;20313;-70
2021/04/01 05:34:28;;;;;;;32.33;13.87;;;8.10;86.10;;;;;;5099852;28;20368;-71
2021/04/01 05:36:55;;;;;;;29.93;12.47;;;8.00;86.00;;;;;;5101613;28;20492;-70
2021/04/01 05:39:39;;;;;;;27.20;10.83;;;7.90;86.00;;;;;;5100230;28;20044;-69
2021/04/01 05:42:05;;;;;;;24.50;7.40;;;7.90;86.10;;;;;;5099923;28;20298;-69
2021/04/01 05:44:39;;;;;;;16.70;6.33;;;7.90;86.10;;;;;;5100225;28;20309;-70
2021/04/01 05:47:33;;;;;;;14.10;4.50;;;7.90;86.10;;;;;;5100407;28;20318;-69
2021/04/01 05:50:09;;;;;;;24.20;5.25;;;7.80;85.60;;;;;;5100574;28;20318;-69
2021/04/01 06:05:49;;;;;;;15.00;3.27;;;7.80;84.60;;;;;;5090559;28;20328;-69
2021/04/01 06:08:19;;;;;;;12.90;3.17;;;7.80;84.40;;;;;;5090915;28;20290;-69
2021/04/01 06:10:45;;;;;;;14.00;3.60;;;7.80;84.20;;;;;;5092938;28;20297;-69
2021/04/01 06:13:16;;;;;;;19.17;2.97;;;7.90;83.70;;;;;;5099190;28;20468;-70
2021/04/01 06:15:49;;;;;;;19.08;3.10;;;7.90;83.20;;;;;;5100575;28;20418;-70
2021/04/01 06:18:21;;;;;;;21.30;3.50;;;8.00;83.10;;;;;;5098169;28;20051;-70
2021/04/01 06:20:49;;;;;;;15.82;3.35;;;8.00;82.80;;;;;;5100836;28;20733;-70
2021/04/01 06:23:27;;;;;;;20.23;3.97;;;8.00;82.70;;;;;;5100091;28;20048;-69
2021/04/01 06:25:58;;;;;;;23.83;3.53;;;8.10;82.70;;;;;;5098400;28;20294;-70
2021/04/01 06:28:38;;;;;;;21.17;3.73;;;8.20;82.10;;;;;;5100534;28;20805;-69
2021/04/01 06:31:06;;;;;;;20.63;3.73;;;8.30;81.90;;;;;;5100227;28;20722;-70
2021/04/01 06:33:42;;;;;;;14.07;3.57;;;8.30;81.70;;;;;;5099409;28;20302;-70
2021/04/01 06:36:17;;;;;;;17.27;3.60;;;8.30;81.80;;;;;;5099555;28;20302;-70
2021/04/01 06:38:42;;;;;;;22.60;4.87;;;8.50;81.60;;;;;;5098018;28;20310;-70
2021/04/01 06:41:19;;;;;;;19.17;4.40;;;8.50;81.40;;;;;;5098602;28;20798;-71
2021/04/01 06:44:14;;;;;;;16.90;3.77;;;8.70;81.30;;;;;;5098231;28;20039;-71
2021/04/01 06:46:48;;;;;;;16.37;4.03;;;8.70;81.00;;;;;;5098198;28;20294;-70
2021/04/01 06:49:41;;;;;;;15.43;3.17;;;8.70;80.90;;;;;;5103242;28;20325;-70
2021/04/01 06:52:16;;;;;;;17.97;4.47;;;8.50;81.20;;;;;;5104029;28;20298;-70
2021/04/01 06:55:00;;;;;;;19.37;3.97;;;8.50;81.70;;;;;;5085741;28;20385;-70
2021/04/01 07:00:10;;;;;;;22.77;4.57;;;8.40;82.30;;;;;;5104283;28;20301;-70
2021/04/01 07:02:42;;;;;;;20.07;3.60;;;8.40;82.30;;;;;;5103220;28;20642;-70
2021/04/01 07:05:36;;;;;;;32.72;4.63;;;8.50;82.40;;;;;;5102947;28;20332;-70
2021/04/01 07:08:08;;;;;;;22.00;4.10;;;8.50;82.80;;;;;;5103106;28;20040;-70
2021/04/01 07:13:48;;;;;;;23.20;4.43;;;8.60;82.90;;;;;;5085552;28;20297;-70
2021/04/01 07:16:25;;;;;;;25.07;4.60;;;8.60;83.00;;;;;;5104737;28;20631;-70
2021/04/01 07:19:21;;;;;;;19.70;3.37;;;8.70;83.10;;;;;;5104409;28;21310;-70
2021/04/01 07:36:01;;;;;;;23.60;5.20;;;9.10;83.30;;;;;;5101354;28;20298;-72
2021/04/01 07:46:52;;;;;;;19.27;4.27;;;9.00;83.90;;;;;;5101380;28;20301;-72
2021/04/01 07:49:24;;;;;;;25.67;6.07;;;8.90;84.00;;;;;;5100093;28;20309;-73
2021/04/01 07:52:01;;;;;;;16.87;4.73;;;8.80;84.60;;;;;;5070471;28;20385;-73
2021/04/01 07:54:53;;;;;;;13.80;4.50;;;8.70;84.70;;;;;;5094835;28;20294;-72
2021/04/01 08:00:11;;;;;;;15.27;5.47;;;8.80;85.20;;;;;;5100999;28;20313;-71
2021/04/01 08:05:34;;;;;;;11.20;4.30;;;9.00;84.30;;;;;;5091430;28;20363;-72
2021/04/01 08:08:05;;;;;;;20.40;5.20;;;8.90;84.50;;;;;;5099034;28;20293;-71
2021/04/01 08:10:36;;;;;;;15.30;3.97;;;8.90;84.90;;;;;;5099782;28;20744;-72
2021/04/01 08:13:12;;;;;;;13.77;3.33;;;8.80;85.50;;;;;;5099422;28;20294;-71
2021/04/01 08:15:49;;;;;;;20.80;5.50;;;8.70;85.90;;;;;;5098484;28;20051;-73
2021/04/01 08:18:18;;;;;;;16.67;4.67;;;8.70;85.40;;;;;;5100424;28;20321;-72
2021/04/01 08:20:46;;;;;;;17.13;4.40;;;8.80;85.30;;;;;;5109711;28;20297;-74
2021/04/01 08:23:20;;;;;;;15.97;4.07;;;9.00;85.10;;;;;;5109700;28;20843;-73
2021/04/01 08:26:01;;;;;;;14.30;3.23;;;9.20;84.80;;;;;;5109112;28;20378;-71
2021/04/01 08:36:22;;;;;;;12.63;2.90;;;8.90;83.30;;;;;;5109625;28;20298;-74
2021/04/01 08:38:48;;;;;;;11.23;2.87;;;9.00;83.40;;;;;;5108251;28;20317;-77
2021/04/01 08:41:33;;;;;;;14.53;2.77;;;9.30;83.40;;;;;;5109157;28;20290;-75
2021/04/01 08:44:35;;;;;;;9.20;2.50;;;9.60;82.50;;;;;;5077491;28;20044;-75
2021/04/01 08:47:38;;;;;;;13.68;3.53;;;9.90;81.50;;;;;;5109179;28;20388;-75
2021/04/01 08:50:29;;;;;;;16.87;2.63;;;10.20;80.30;;;;;;5109369;28;20138;-75
2021/04/01 08:53:10;;;;;;;18.20;3.13;;;10.50;80.40;;;;;;5107900;28;20380;-75
2021/04/01 08:55:46;;;;;;;10.40;2.78;;;10.80;78.10;;;;;;5108635;28;20297;-75
2021/04/01 08:58:20;;;;;;;10.60;3.13;;;10.80;78.30;;;;;;5108939;28;20496;-76
2021/04/01 09:00:49;;;;;;;9.90;2.20;;;10.80;77.90;;;;;;5108457;28;20661;-75
2021/04/01 09:03:18;;;;;;;16.60;3.23;;;10.60;77.20;;;;;;5108541;28;20299;-74
2021/04/01 09:05:52;;;;;;;11.80;3.17;;;10.30;77.80;;;;;;5108063;28;21119;-75
2021/04/01 09:08:25;;;;;;;17.67;3.43;;;10.20;78.20;;;;;;5109282;28;20327;-74
2021/04/01 09:10:55;;;;;;;13.00;3.33;;;10.10;78.60;;;;;;5108272;28;20300;-76
2021/04/01 09:13:32;;;;;;;11.23;3.17;;;10.40;78.70;;;;;;5108881;28;20301;-74
2021/04/01 09:16:19;;;;;;;16.00;3.43;;;10.60;77.60;;;;;;5108560;28;20281;-75
2021/04/01 09:18:46;;;;;;;15.57;2.47;;;10.70;76.40;;;;;;5108327;28;20689;-74
2021/04/01 09:21:13;;;;;;;15.00;3.20;;;10.80;75.90;;;;;;5107885;28;20305;-75
2021/04/01 09:23:46;;;;;;;12.27;2.73;;;10.60;76.10;;;;;;5108864;28;20436;-76
2021/04/01 09:26:13;;;;;;;14.97;3.13;;;10.40;76.20;;;;;;5108563;28;20331;-75
2021/04/01 09:28:42;;;;;;;9.97;3.07;;;10.30;76.60;;;;;;5107713;28;20674;-75
2021/04/01 09:31:13;;;;;;;18.77;3.30;;;10.20;76.30;;;;;;5108252;28;20289;-75
2021/04/01 09:33:40;;;;;;;20.48;3.20;;;10.30;76.30;;;;;;5107982;28;20297;-74
2021/04/01 09:36:11;;;;;;;19.27;3.47;;;10.30;76.30;;;;;;5108336;28;20051;-75
2021/04/01 09:38:39;;;;;;;14.50;2.60;;;10.40;76.00;;;;;;5108151;28;20313;-75
2021/04/01 09:41:05;;;;;;;16.53;3.47;;;10.50;75.70;;;;;;5108081;28;20442;-75
2021/04/01 09:43:31;;;;;;;15.47;3.53;;;10.60;75.50;;;;;;5108425;28;20302;-76
2021/04/01 09:46:09;;;;;;;14.67;3.00;;;10.70;75.10;;;;;;5107933;28;20301;-75
2021/04/01 09:48:39;;;;;;;13.33;3.00;;;10.60;74.20;;;;;;5107299;28;20368;-75
2021/04/01 09:51:16;;;;;;;16.20;3.73;;;10.50;75.50;;;;;;5108841;28;20329;-76
2021/04/01 09:53:50;;;;;;;13.60;3.00;;;10.40;74.80;;;;;;5108755;28;20304;-74
2021/04/01 09:56:27;;;;;;;14.70;2.90;;;10.50;75.20;;;;;;5108117;28;20354;-73
2021/04/01 09:58:54;;;;;;;16.47;3.37;;;10.40;73.90;;;;;;5107718;28;20377;-74
2021/04/01 10:01:35;;;;;;;14.60;4.20;;;10.20;74.50;;;;;;5108036;28;20305;-75
2021/04/01 10:04:01;;;;;;;16.83;3.03;;;10.10;74.90;;;;;;5107451;28;20297;-73
2021/04/01 10:06:37;;;;;;;16.50;3.40;;;10.10;75.50;;;;;;5108400;28;20355;-75
2021/04/01 10:09:10;;;;;;;18.27;2.90;;;10.20;75.40;;;;;;5106909;28;20301;-74
2021/04/01 10:11:44;;;;;;;13.77;2.67;;;10.20;75.20;;;;;;5107791;28;20664;-73
2021/04/01 10:14:11;;;;;;;14.67;3.30;;;10.20;74.40;;;;;;5108195;28;20784;-72
2021/04/01 10:16:55;;;;;;;17.97;3.20;;;10.20;74.50;;;;;;5085721;28;20360;-72
2021/04/01 10:19:46;;;;;;;17.80;3.27;;;10.30;74.30;;;;;;5097153;28;20317;-73
2021/04/01 10:22:39;;;;;;;14.13;2.80;;;10.50;74.70;;;;;;5089933;28;20301;-72
2021/04/01 10:25:12;;;;;;;13.17;3.70;;;10.70;72.90;;;;;;5086793;28;20438;-74
2021/04/01 10:27:45;;;;;;;12.57;2.37;;;10.70;73.10;;;;;;5091796;28;20294;-74
2021/04/01 10:30:12;;;;;;;18.57;3.10;;;10.70;72.60;;;;;;5090956;28;20313;-73
2021/04/01 10:32:41;;;;;;;13.50;3.70;;;10.60;72.80;;;;;;5091527;28;20343;-73
2021/04/01 10:35:12;;;;;;;18.63;4.83;;;10.60;72.90;;;;;;5091043;28;20986;-75
2021/04/01 10:37:48;;;;;;;15.17;3.47;;;10.60;72.70;;;;;;5090756;28;20384;-73
2021/04/01 10:40:15;;;;;;;14.23;3.03;;;10.60;72.90;;;;;;5091642;28;20309;-78
2021/04/01 10:43:01;;;;;;;12.93;3.00;;;10.70;72.60;;;;;;5091019;28;20290;-71
2021/04/01 10:45:33;;;;;;;14.93;2.80;;;10.80;72.80;;;;;;5090134;28;20686;-71
2021/04/01 10:48:17;;;;;;;16.07;3.40;;;10.90;71.40;;;;;;5091341;28;20297;-71
2021/04/01 10:50:44;;;;;;;16.17;3.47;;;10.80;71.60;;;;;;5091374;28;20310;-70
2021/04/01 10:53:21;;;;;;;21.77;3.60;;;10.70;71.60;;;;;;5090330;28;20309;-70
2021/04/01 10:55:48;;;;;;;16.63;4.00;;;10.70;71.30;;;;;;5090345;28;20297;-72
2021/04/01 10:58:15;;;;;;;17.83;3.30;;;10.60;71.50;;;;;;5099107;28;20381;-72
2021/04/01 11:00:50;;;;;;;20.47;4.47;;;10.40;72.00;;;;;;5082596;28;20289;-71
2021/04/01 11:03:20;;;;;;;9.53;3.07;;;10.40;72.10;;;;;;5108691;28;20693;-72
2021/04/01 11:05:47;;;;;;;22.03;3.67;;;10.40;71.50;;;;;;5110586;28;20339;-71
2021/04/01 11:08:14;;;;;;;18.33;3.47;;;10.40;71.00;;;;;;5111515;28;20374;-70
2021/04/01 11:10:41;;;;;;;16.33;3.83;;;10.60;70.80;;;;;;5110845;28;20308;-69
2021/04/01 11:13:08;;;;;;;18.77;4.00;;;10.60;70.70;;;;;;5110081;28;21035;-69
2021/04/01 11:15:42;;;;;;;16.63;3.60;;;10.50;70.00;;;;;;5110656;28;20321;-69
2021/04/01 11:18:17;;;;;;;25.63;3.60;;;10.50;70.50;;;;;;5111171;28;20344;-68
2021/04/01 11:20:44;;;;;;;18.50;3.67;;;10.50;69.50;;;;;;5109544;28;20309;-70
2021/04/01 11:23:19;;;;;;;18.60;3.40;;;10.60;69.70;;;;;;5110692;28;20709;-71
2021/04/01 11:25:50;;;;;;;15.47;3.40;;;10.60;69.50;;;;;;5092280;28;20666;-71
2021/04/01 11:28:16;;;;;;;16.70;3.00;;;10.70;69.20;;;;;;5110358;28;20301;-68
2021/04/01 11:30:49;;;;;;;19.60;3.83;;;10.60;68.60;;;;;;5110414;28;20211;-68
2021/04/01 11:33:17;;;;;;;13.27;3.10;;;10.60;69.50;;;;;;5108980;28;20393;-69
2021/04/01 11:35:44;;;;;;;12.63;3.77;;;10.50;69.10;;;;;;5110227;28;20316;-71
2021/04/01 11:38:22;;;;;;;18.03;3.43;;;10.40;68.90;;;;;;5110962;28;20306;-68
2021/04/01 11:40:59;;;;;;;20.17;3.73;;;10.30;69.00;;;;;;5109746;28;20293;-71
2021/04/01 11:43:29;;;;;;;20.67;3.40;;;10.40;69.10;;;;;;5110472;28;20290;-70
2021/04/01 11:45:55;;;;;;;16.50;3.50;;;10.50;68.90;;;;;;5109446;28;20313;-71
2021/04/01 11:48:24;;;;;;;13.67;3.40;;;10.50;68.00;;;;;;5110304;28;20297;-72
2021/04/01 11:50:51;;;;;;;13.90;3.00;;;10.50;67.60;;;;;;5109781;28;20308;-70
2021/04/01 11:53:17;;;;;;;13.40;3.47;;;10.60;68.00;;;;;;5110239;28;20043;-70
2021/04/01 11:55:51;;;;;;;19.23;4.80;;;10.80;67.60;;;;;;5109165;28;20782;-71
2021/04/01 11:58:17;;;;;;;11.87;3.60;;;10.80;67.20;;;;;;5110713;28;20304;-70
2021/04/01 12:00:44;;;;;;;14.10;3.43;;;10.80;67.40;;;;;;5109861;28;20959;-70
2021/04/01 12:03:14;;;;;;;12.43;3.47;;;10.70;66.80;;;;;;5109368;28;20825;-70
2021/04/01 12:05:44;;;;;;;14.67;3.30;;;10.60;66.50;;;;;;5109720;28;20817;-70
2021/04/01 12:08:10;;;;;;;16.80;4.03;;;10.50;66.30;;;;;;5110604;28;20337;-74
2021/04/01 12:10:37;;;;;;;13.10;2.80;;;10.50;65.90;;;;;;5108926;28;20298;-72
2021/04/01 12:13:03;;;;;;;15.53;3.20;;;10.50;66.00;;;;;;5109942;28;20370;-72
2021/04/01 12:15:29;;;;;;;14.40;3.10;;;10.50;65.60;;;;;;5109526;28;20301;-72
2021/04/01 12:17:56;;;;;;;18.60;4.17;;;10.40;66.20;;;;;;5109652;28;20796;-72
2021/04/01 12:20:23;;;;;;;16.83;3.30;;;10.50;66.60;;;;;;5109995;28;20325;-73
2021/04/01 12:22:48;;;;;;;14.37;3.63;;;10.60;65.30;;;;;;5108505;28;20293;-73
2021/04/01 12:25:20;;;;;;;16.50;3.47;;;10.50;65.70;;;;;;5110058;28;20323;-71
2021/04/01 12:27:51;;;;;;;17.97;3.67;;;10.50;65.30;;;;;;5109125;28;20044;-73
2021/04/01 12:30:23;;;;;;;10.07;4.17;;;10.50;65.20;;;;;;5108738;28;20305;-73
2021/04/01 12:32:50;;;;;;;14.40;3.80;;;10.60;64.80;;;;;;5109045;28;20854;-72
2021/04/01 12:35:16;;;;;;;14.87;4.03;;;10.70;65.00;;;;;;5109929;28;20350;-72
2021/04/01 12:37:43;;;;;;;13.77;3.30;;;10.60;65.40;;;;;;5108637;28;20301;-70
2021/04/01 12:40:11;;;;;;;13.17;3.90;;;10.50;65.90;;;;;;5109049;28;20082;-70
2021/04/01 12:42:38;;;;;;;13.33;3.60;;;10.40;65.80;;;;;;5109181;28;20304;-71
2021/04/01 12:45:14;;;;;;;12.80;3.57;;;10.40;66.50;;;;;;5107633;28;20765;-71
2021/04/01 12:47:42;;;;;;;9.50;2.83;;;10.40;65.90;;;;;;5108930;28;20708;-72
2021/04/01 12:50:08;;;;;;;13.33;3.27;;;10.30;66.30;;;;;;5109399;28;21172;-71
2021/04/01 12:52:45;;;;;;;12.03;3.63;;;10.40;66.70;;;;;;5108398;28;20289;-71
2021/04/01 12:55:13;;;;;;;7.57;3.50;;;10.30;67.10;;;;;;5109679;28;20329;-71
2021/04/01 12:57:43;;;;;;;6.50;3.00;;;10.30;68.30;;;;;;5108096;28;20815;-80
2021/04/01 13:00:10;;;;;;;12.03;3.87;;;10.30;67.80;;;;;;5108954;28;20800;-75
2021/04/01 13:02:36;;;;;;;7.30;2.77;;;10.20;68.60;;;;;;5108602;28;20412;-73
2021/04/01 13:05:05;;;;;;;6.67;2.30;;;10.20;68.60;;;;;;5107377;28;20384;-73
2021/04/01 13:12:47;;;;;;;6.75;2.65;;;9.70;70.80;;;;;;5107549;28;20410;-75
2021/04/01 13:15:13;;;;;;;9.23;2.70;;;9.50;71.50;;;;;;5109156;28;20514;-74
2021/04/01 13:17:39;;;;;;;7.37;2.70;;;9.30;72.40;;;;;;5095849;28;20388;-76
2021/04/01 13:20:05;;;;;;;6.83;2.80;;;9.00;73.30;;;;;;5097833;28;20323;-74
2021/04/01 13:22:43;;;;;;;8.90;2.63;;;8.90;74.00;;;;;;5097657;28;20143;-74
2021/04/01 13:27:36;;;;;;;7.97;2.87;;;8.90;74.60;;;;;;5107881;28;20297;-75
2021/04/01 13:30:06;;;;;;;9.97;3.20;;;8.90;75.10;;;;;;5108547;28;20341;-75
2021/04/01 13:32:41;;;;;;;10.57;3.43;;;8.90;75.60;;;;;;5108289;28;20386;-75
2021/04/01 13:37:37;;;;;;;8.33;3.17;;;8.70;76.50;;;;;;5108086;28;20301;-75
2021/04/01 13:40:10;;;;;;;10.37;3.47;;;8.70;76.70;;;;;;5107330;28;20143;-75
2021/04/01 13:42:37;;;;;;;10.07;3.60;;;8.60;76.50;;;;;;5107682;28;20289;-73
2021/04/01 13:45:12;;;;;;;10.80;3.40;;;8.60;76.80;;;;;;5108302;28;20405;-75
2021/04/01 13:47:42;;;;;;;7.07;3.70;;;8.60;76.50;;;;;;5107253;28;20786;-75
2021/04/01 13:50:12;;;;;;;9.50;6.30;;;8.60;76.40;;;;;;5108101;28;20301;-77
2021/04/01 13:55:28;;;;;;;7.77;4.50;;;8.50;77.00;;;;;;5109083;28;20302;-77
2021/04/01 13:58:23;;;;;;;9.70;4.57;;;8.50;76.90;;;;;;5111542;28;20828;-76
2021/04/01 14:04:16;;;;;;;13.73;4.50;;;8.50;76.90;;;;;;5112040;28;20301;-77
2021/04/01 14:09:35;;;;;;;9.33;4.87;;;8.50;77.20;;;;;;5111743;28;20352;-75
2021/04/01 14:12:07;;;;;;;15.10;5.80;;;8.50;77.10;;;;;;5112742;28;20301;-75
2021/04/01 14:14:35;;;;;;;11.27;6.17;;;8.50;77.40;;;;;;5111994;28;20052;-74
2021/04/01 14:17:04;;;;;;;14.10;4.93;;;8.50;77.20;;;;;;5111168;28;20329;-74
2021/04/01 14:19:30;;;;;;;11.10;4.83;;;8.60;77.10;;;;;;5111886;28;20863;-74